sensor_id;sensor_type;location;lat;lon;timestamp;temperature;humidity
20658;DHT22;10488;50.846;4.078;2023-03-23T00:01:19;12.90;99.90
20658;DHT22;10488;50.846;4.078;2023-03-23T00:03:46;12.90;99.90
20658;DHT22;10488;50.846;4.078;2023-03-23T00:06:13;12.90;99.90
20658;DHT22;10488;50.846;4.078;2023-03-23T00:08:44;12.90;99.90
20658;DHT22;10488;50.846;4.078;2023-03-23T00:11:13;13.00;99.90
20658;DHT22;10488;50.846;4.078;2023-03-23T00:13:41;12.90;99.90
20658;DHT22;10488;50.846;4.078;2023-03-23T00:16:07;12.90;99.90
20658;DHT22;10488;50.846;4.078;2023-03-23T00:18:50;12.90;99.90
20658;DHT22;10488;50.846;4.078;2023-03-23T00:21:20;12.90;99.90
20658;DHT22;10488;50.846;4.078;2023-03-23T00:23:46;12.80;99.90
20658;DHT22;10488;50.846;4.078;2023-03-23T00:26:12;12.80;99.90
20658;DHT22;10488;50.846;4.078;2023-03-23T00:28:39;12.80;99.90
20658;DHT22;10488;50.846;4.078;2023-03-23T00:31:07;12.90;99.90
20658;DHT22;10488;50.846;4.078;2023-03-23T00:33:35;12.90;99.90
20658;DHT22;10488;50.846;4.078;2023-03-23T00:36:04;12.90;99.90
20658;DHT22;10488;50.846;4.078;2023-03-23T00:38:31;12.90;99.90
20658;DHT22;10488;50.846;4.078;2023-03-23T00:40:56;12.90;99.90
20658;DHT22;10488;50.846;4.078;2023-03-23T00:43:23;13.00;99.90
20658;DHT22;10488;50.846;4.078;2023-03-23T00:45:50;13.00;99.90
20658;DHT22;10488;50.846;4.078;2023-03-23T00:48:21;13.00;99.90
20658;DHT22;10488;50.846;4.078;2023-03-23T00:50:49;13.00;99.90
20658;DHT22;10488;50.846;4.078;2023-03-23T00:53:16;12.90;99.90
20658;DHT22;10488;50.846;4.078;2023-03-23T00:55:47;13.00;99.90
20658;DHT22;10488;50.846;4.078;2023-03-23T00:58:14;12.90;99.90
20658;DHT22;10488;50.846;4.078;2023-03-23T01:00:40;13.00;99.90
20658;DHT22;10488;50.846;4.078;2023-03-23T01:03:06;13.00;99.90
20658;DHT22;10488;50.846;4.078;2023-03-23T01:05:36;13.00;99.90
20658;DHT22;10488;50.846;4.078;2023-03-23T01:08:03;13.10;99.90
20658;DHT22;10488;50.846;4.078;2023-03-23T01:10:29;13.00;99.90
20658;DHT22;10488;50.846;4.078;2023-03-23T01:12:59;13.10;99.90
20658;DHT22;10488;50.846;4.078;2023-03-23T01:15:26;13.10;99.90
20658;DHT22;10488;50.846;4.078;2023-03-23T01:17:53;13.00;99.90
20658;DHT22;10488;50.846;4.078;2023-03-23T01:20:19;13.00;99.90
20658;DHT22;10488;50.846;4.078;2023-03-23T01:22:45;13.00;99.90
20658;DHT22;10488;50.846;4.078;2023-03-23T01:25:12;13.00;99.90
20658;DHT22;10488;50.846;4.078;2023-03-23T01:27:39;13.00;99.90
20658;DHT22;10488;50.846;4.078;2023-03-23T01:30:05;13.00;99.90
20658;DHT22;10488;50.846;4.078;2023-03-23T01:32:32;13.00;99.90
20658;DHT22;10488;50.846;4.078;2023-03-23T01:34:58;13.00;99.90
20658;DHT22;10488;50.846;4.078;2023-03-23T01:37:24;13.10;99.90
20658;DHT22;10488;50.846;4.078;2023-03-23T01:39:55;13.10;99.90
20658;DHT22;10488;50.846;4.078;2023-03-23T01:42:25;13.00;99.90
20658;DHT22;10488;50.846;4.078;2023-03-23T01:47:20;12.90;99.90
20658;DHT22;10488;50.846;4.078;2023-03-23T01:49:49;12.90;99.90
20658;DHT22;10488;50.846;4.078;2023-03-23T01:52:23;12.90;99.90
20658;DHT22;10488;50.846;4.078;2023-03-23T01:54:52;12.80;99.90
20658;DHT22;10488;50.846;4.078;2023-03-23T01:57:20;12.90;99.90
20658;DHT22;10488;50.846;4.078;2023-03-23T01:59:49;12.80;99.90
20658;DHT22;10488;50.846;4.078;2023-03-23T02:02:17;12.90;99.90
20658;DHT22;10488;50.846;4.078;2023-03-23T02:04:43;12.90;99.90
20658;DHT22;10488;50.846;4.078;2023-03-23T02:07:11;12.80;99.90
20658;DHT22;10488;50.846;4.078;2023-03-23T02:09:37;12.80;99.90
20658;DHT22;10488;50.846;4.078;2023-03-23T02:12:03;12.80;99.90
20658;DHT22;10488;50.846;4.078;2023-03-23T02:14:29;12.80;99.90
20658;DHT22;10488;50.846;4.078;2023-03-23T02:20:39;12.70;99.90
20658;DHT22;10488;50.846;4.078;2023-03-23T02:31:48;12.60;99.90
20658;DHT22;10488;50.846;4.078;2023-03-23T02:35:08;12.60;99.90
20658;DHT22;10488;50.846;4.078;2023-03-23T02:37:38;12.80;99.90
20658;DHT22;10488;50.846;4.078;2023-03-23T02:40:12;12.80;99.90
20658;DHT22;10488;50.846;4.078;2023-03-23T02:42:43;12.80;99.90
20658;DHT22;10488;50.846;4.078;2023-03-23T02:45:11;12.70;99.90
20658;DHT22;10488;50.846;4.078;2023-03-23T02:47:39;12.60;99.90
20658;DHT22;10488;50.846;4.078;2023-03-23T02:50:10;12.70;99.90
20658;DHT22;10488;50.846;4.078;2023-03-23T02:52:38;12.70;99.90
20658;DHT22;10488;50.846;4.078;2023-03-23T02:55:05;12.80;99.90
20658;DHT22;10488;50.846;4.078;2023-03-23T02:57:31;12.80;99.90
20658;DHT22;10488;50.846;4.078;2023-03-23T02:59:57;12.70;99.90
20658;DHT22;10488;50.846;4.078;2023-03-23T03:02:39;12.80;99.90
20658;DHT22;10488;50.846;4.078;2023-03-23T03:10:49;12.70;99.90
20658;DHT22;10488;50.846;4.078;2023-03-23T03:16:31;12.60;99.90
20658;DHT22;10488;50.846;4.078;2023-03-23T03:21:38;12.70;99.90
20658;DHT22;10488;50.846;4.078;2023-03-23T03:24:07;12.70;99.90
20658;DHT22;10488;50.846;4.078;2023-03-23T03:26:39;12.60;99.90
20658;DHT22;10488;50.846;4.078;2023-03-23T03:29:06;12.70;99.90
20658;DHT22;10488;50.846;4.078;2023-03-23T03:31:36;12.70;99.90
20658;DHT22;10488;50.846;4.078;2023-03-23T03:34:03;12.70;99.90
20658;DHT22;10488;50.846;4.078;2023-03-23T03:36:32;12.70;99.90
20658;DHT22;10488;50.846;4.078;2023-03-23T03:39:02;12.70;99.90
20658;DHT22;10488;50.846;4.078;2023-03-23T03:41:34;12.60;99.90
20658;DHT22;10488;50.846;4.078;2023-03-23T03:44:01;12.70;99.90
20658;DHT22;10488;50.846;4.078;2023-03-23T03:46:26;12.70;99.90
20658;DHT22;10488;50.846;4.078;2023-03-23T03:48:55;12.60;99.90
20658;DHT22;10488;50.846;4.078;2023-03-23T03:51:25;12.70;99.90
20658;DHT22;10488;50.846;4.078;2023-03-23T03:53:52;12.60;99.90
20658;DHT22;10488;50.846;4.078;2023-03-23T03:56:19;12.70;99.90
20658;DHT22;10488;50.846;4.078;2023-03-23T03:58:45;12.70;99.90
20658;DHT22;10488;50.846;4.078;2023-03-23T04:01:11;12.70;99.90
20658;DHT22;10488;50.846;4.078;2023-03-23T04:03:37;12.70;99.90
20658;DHT22;10488;50.846;4.078;2023-03-23T04:06:04;12.70;99.90
20658;DHT22;10488;50.846;4.078;2023-03-23T04:08:30;12.70;99.90
20658;DHT22;10488;50.846;4.078;2023-03-23T04:10:57;12.60;99.90
20658;DHT22;10488;50.846;4.078;2023-03-23T04:13:22;12.50;99.90
20658;DHT22;10488;50.846;4.078;2023-03-23T04:15:48;12.60;99.90
20658;DHT22;10488;50.846;4.078;2023-03-23T04:18:15;12.60;99.90
20658;DHT22;10488;50.846;4.078;2023-03-23T04:20:44;12.60;99.90
20658;DHT22;10488;50.846;4.078;2023-03-23T04:23:16;12.50;99.90
20658;DHT22;10488;50.846;4.078;2023-03-23T04:25:48;12.60;99.90
20658;DHT22;10488;50.846;4.078;2023-03-23T04:28:15;12.60;99.90
20658;DHT22;10488;50.846;4.078;2023-03-23T04:30:42;12.60;99.90
20658;DHT22;10488;50.846;4.078;2023-03-23T04:33:09;12.50;99.90
20658;DHT22;10488;50.846;4.078;2023-03-23T04:35:42;12.50;99.90
20658;DHT22;10488;50.846;4.078;2023-03-23T04:38:12;12.50;99.90
20658;DHT22;10488;50.846;4.078;2023-03-23T04:40:40;12.40;99.90
20658;DHT22;10488;50.846;4.078;2023-03-23T04:43:06;12.40;99.90
20658;DHT22;10488;50.846;4.078;2023-03-23T04:45:33;12.30;99.90
20658;DHT22;10488;50.846;4.078;2023-03-23T04:48:00;12.20;99.90
20658;DHT22;10488;50.846;4.078;2023-03-23T04:50:29;12.10;99.90
20658;DHT22;10488;50.846;4.078;2023-03-23T04:52:57;12.10;99.90
20658;DHT22;10488;50.846;4.078;2023-03-23T04:55:25;12.00;99.90
20658;DHT22;10488;50.846;4.078;2023-03-23T04:57:52;12.10;99.90
20658;DHT22;10488;50.846;4.078;2023-03-23T05:00:19;12.20;99.90
20658;DHT22;10488;50.846;4.078;2023-03-23T05:02:46;12.10;99.90
20658;DHT22;10488;50.846;4.078;2023-03-23T05:05:13;12.20;99.90
20658;DHT22;10488;50.846;4.078;2023-03-23T05:07:40;12.20;99.90
20658;DHT22;10488;50.846;4.078;2023-03-23T05:10:08;12.20;99.90
20658;DHT22;10488;50.846;4.078;2023-03-23T05:12:35;12.20;99.90
20658;DHT22;10488;50.846;4.078;2023-03-23T05:15:01;12.20;99.90
20658;DHT22;10488;50.846;4.078;2023-03-23T05:17:27;12.20;99.90
20658;DHT22;10488;50.846;4.078;2023-03-23T05:19:53;12.20;99.90
20658;DHT22;10488;50.846;4.078;2023-03-23T05:22:19;12.30;99.90
20658;DHT22;10488;50.846;4.078;2023-03-23T05:24:47;12.20;99.90
20658;DHT22;10488;50.846;4.078;2023-03-23T05:27:13;12.30;99.90
20658;DHT22;10488;50.846;4.078;2023-03-23T05:29:40;12.40;99.90
20658;DHT22;10488;50.846;4.078;2023-03-23T05:32:07;12.40;99.90
20658;DHT22;10488;50.846;4.078;2023-03-23T05:34:34;12.30;99.90
20658;DHT22;10488;50.846;4.078;2023-03-23T05:37:00;12.30;99.90
20658;DHT22;10488;50.846;4.078;2023-03-23T05:39:27;12.20;99.90
20658;DHT22;10488;50.846;4.078;2023-03-23T05:41:54;12.20;99.90
20658;DHT22;10488;50.846;4.078;2023-03-23T05:44:20;12.20;99.90
20658;DHT22;10488;50.846;4.078;2023-03-23T05:46:46;12.20;99.90
20658;DHT22;10488;50.846;4.078;2023-03-23T05:49:11;12.30;99.90
20658;DHT22;10488;50.846;4.078;2023-03-23T05:51:37;12.30;99.90
20658;DHT22;10488;50.846;4.078;2023-03-23T05:54:03;12.30;99.90
20658;DHT22;10488;50.846;4.078;2023-03-23T05:56:29;12.30;99.90
20658;DHT22;10488;50.846;4.078;2023-03-23T05:58:59;12.20;99.90
20658;DHT22;10488;50.846;4.078;2023-03-23T06:01:26;12.20;99.90
20658;DHT22;10488;50.846;4.078;2023-03-23T06:03:52;12.20;99.90
20658;DHT22;10488;50.846;4.078;2023-03-23T06:06:20;12.30;99.90
20658;DHT22;10488;50.846;4.078;2023-03-23T06:08:46;12.40;99.90
20658;DHT22;10488;50.846;4.078;2023-03-23T06:11:12;12.30;99.90
20658;DHT22;10488;50.846;4.078;2023-03-23T06:13:38;12.30;99.90
20658;DHT22;10488;50.846;4.078;2023-03-23T06:16:04;12.30;99.90
20658;DHT22;10488;50.846;4.078;2023-03-23T06:18:30;12.40;99.90
20658;DHT22;10488;50.846;4.078;2023-03-23T06:21:00;12.50;99.90
20658;DHT22;10488;50.846;4.078;2023-03-23T06:23:26;12.50;99.90
20658;DHT22;10488;50.846;4.078;2023-03-23T06:26:01;12.60;99.90
20658;DHT22;10488;50.846;4.078;2023-03-23T06:28:27;12.70;99.90
20658;DHT22;10488;50.846;4.078;2023-03-23T06:30:53;12.70;99.90
20658;DHT22;10488;50.846;4.078;2023-03-23T06:33:19;12.70;99.90
20658;DHT22;10488;50.846;4.078;2023-03-23T06:35:45;12.40;99.90
20658;DHT22;10488;50.846;4.078;2023-03-23T06:38:11;12.30;99.90
20658;DHT22;10488;50.846;4.078;2023-03-23T06:40:37;11.90;99.90
20658;DHT22;10488;50.846;4.078;2023-03-23T06:43:03;11.80;99.90
20658;DHT22;10488;50.846;4.078;2023-03-23T06:45:30;11.40;99.90
20658;DHT22;10488;50.846;4.078;2023-03-23T06:47:56;11.10;99.90
20658;DHT22;10488;50.846;4.078;2023-03-23T06:50:44;11.00;99.90
20658;DHT22;10488;50.846;4.078;2023-03-23T06:53:10;10.90;99.90
20658;DHT22;10488;50.846;4.078;2023-03-23T06:55:36;10.80;99.90
20658;DHT22;10488;50.846;4.078;2023-03-23T06:58:04;10.80;99.90
20658;DHT22;10488;50.846;4.078;2023-03-23T07:00:31;10.80;99.90
20658;DHT22;10488;50.846;4.078;2023-03-23T07:02:57;10.60;99.90
20658;DHT22;10488;50.846;4.078;2023-03-23T07:05:23;10.60;99.90
20658;DHT22;10488;50.846;4.078;2023-03-23T07:07:49;10.40;99.90
20658;DHT22;10488;50.846;4.078;2023-03-23T07:10:16;10.40;99.90
20658;DHT22;10488;50.846;4.078;2023-03-23T07:12:41;10.70;99.90
20658;DHT22;10488;50.846;4.078;2023-03-23T07:15:08;10.70;99.90
20658;DHT22;10488;50.846;4.078;2023-03-23T07:17:37;11.00;99.90
20658;DHT22;10488;50.846;4.078;2023-03-23T07:20:03;10.90;99.90
20658;DHT22;10488;50.846;4.078;2023-03-23T07:22:31;11.00;99.90
20658;DHT22;10488;50.846;4.078;2023-03-23T07:24:56;11.20;99.90
20658;DHT22;10488;50.846;4.078;2023-03-23T07:27:22;11.30;99.90
20658;DHT22;10488;50.846;4.078;2023-03-23T07:29:48;11.40;99.90
20658;DHT22;10488;50.846;4.078;2023-03-23T07:32:13;11.50;99.90
20658;DHT22;10488;50.846;4.078;2023-03-23T07:34:39;11.60;99.90
20658;DHT22;10488;50.846;4.078;2023-03-23T07:37:05;11.60;99.90
20658;DHT22;10488;50.846;4.078;2023-03-23T07:39:31;11.70;99.90
20658;DHT22;10488;50.846;4.078;2023-03-23T07:41:58;11.70;99.90
20658;DHT22;10488;50.846;4.078;2023-03-23T07:44:24;11.60;99.90
20658;DHT22;10488;50.846;4.078;2023-03-23T07:46:50;11.60;99.90
20658;DHT22;10488;50.846;4.078;2023-03-23T07:49:17;11.50;99.90
20658;DHT22;10488;50.846;4.078;2023-03-23T07:51:43;11.40;99.90
20658;DHT22;10488;50.846;4.078;2023-03-23T07:54:08;11.50;99.90
20658;DHT22;10488;50.846;4.078;2023-03-23T07:56:35;11.40;99.90
20658;DHT22;10488;50.846;4.078;2023-03-23T07:59:01;11.50;99.90
20658;DHT22;10488;50.846;4.078;2023-03-23T08:01:28;11.40;99.90
20658;DHT22;10488;50.846;4.078;2023-03-23T08:03:54;11.60;99.90
20658;DHT22;10488;50.846;4.078;2023-03-23T08:06:23;11.60;99.90
20658;DHT22;10488;50.846;4.078;2023-03-23T08:08:49;11.40;99.90
20658;DHT22;10488;50.846;4.078;2023-03-23T08:11:16;11.30;99.90
20658;DHT22;10488;50.846;4.078;2023-03-23T08:13:43;11.20;99.90
20658;DHT22;10488;50.846;4.078;2023-03-23T08:16:09;11.10;99.90
20658;DHT22;10488;50.846;4.078;2023-03-23T08:18:36;10.90;99.90
20658;DHT22;10488;50.846;4.078;2023-03-23T08:21:04;11.00;99.90
20658;DHT22;10488;50.846;4.078;2023-03-23T08:23:31;11.00;99.90
20658;DHT22;10488;50.846;4.078;2023-03-23T08:25:57;10.90;99.90
20658;DHT22;10488;50.846;4.078;2023-03-23T08:28:22;10.90;99.90
20658;DHT22;10488;50.846;4.078;2023-03-23T08:30:48;10.90;99.90
20658;DHT22;10488;50.846;4.078;2023-03-23T08:33:15;11.00;99.90
20658;DHT22;10488;50.846;4.078;2023-03-23T08:35:41;11.00;99.90
20658;DHT22;10488;50.846;4.078;2023-03-23T08:38:09;11.00;99.90
20658;DHT22;10488;50.846;4.078;2023-03-23T08:40:35;11.10;99.90
20658;DHT22;10488;50.846;4.078;2023-03-23T08:43:02;11.10;99.90
20658;DHT22;10488;50.846;4.078;2023-03-23T08:45:27;11.10;99.90
20658;DHT22;10488;50.846;4.078;2023-03-23T08:47:54;11.20;99.90
20658;DHT22;10488;50.846;4.078;2023-03-23T08:50:26;11.40;99.90
20658;DHT22;10488;50.846;4.078;2023-03-23T08:52:53;11.40;99.90
20658;DHT22;10488;50.846;4.078;2023-03-23T08:55:21;11.60;99.90
20658;DHT22;10488;50.846;4.078;2023-03-23T08:57:47;11.70;99.90
20658;DHT22;10488;50.846;4.078;2023-03-23T09:00:19;11.80;99.90
20658;DHT22;10488;50.846;4.078;2023-03-23T09:02:49;12.10;99.90
20658;DHT22;10488;50.846;4.078;2023-03-23T09:05:18;12.10;99.90
20658;DHT22;10488;50.846;4.078;2023-03-23T09:07:46;12.20;99.90
20658;DHT22;10488;50.846;4.078;2023-03-23T09:10:14;12.50;99.90
20658;DHT22;10488;50.846;4.078;2023-03-23T09:12:41;12.80;99.90
20658;DHT22;10488;50.846;4.078;2023-03-23T09:15:09;12.60;99.90
20658;DHT22;10488;50.846;4.078;2023-03-23T09:17:43;12.70;99.90
20658;DHT22;10488;50.846;4.078;2023-03-23T09:20:11;12.80;99.90
20658;DHT22;10488;50.846;4.078;2023-03-23T09:22:45;12.60;99.90
20658;DHT22;10488;50.846;4.078;2023-03-23T09:25:16;12.40;99.90
20658;DHT22;10488;50.846;4.078;2023-03-23T09:27:44;12.20;99.90
20658;DHT22;10488;50.846;4.078;2023-03-23T09:30:13;12.30;99.90
20658;DHT22;10488;50.846;4.078;2023-03-23T09:32:40;12.30;99.90
20658;DHT22;10488;50.846;4.078;2023-03-23T09:35:09;12.60;99.90
20658;DHT22;10488;50.846;4.078;2023-03-23T09:37:37;12.80;99.90
20658;DHT22;10488;50.846;4.078;2023-03-23T09:40:05;13.00;99.90
20658;DHT22;10488;50.846;4.078;2023-03-23T09:42:56;13.30;99.90
20658;DHT22;10488;50.846;4.078;2023-03-23T09:45:41;13.40;99.90
20658;DHT22;10488;50.846;4.078;2023-03-23T09:51:19;13.50;99.90
20658;DHT22;10488;50.846;4.078;2023-03-23T09:53:51;13.60;99.90
20658;DHT22;10488;50.846;4.078;2023-03-23T09:56:34;13.60;99.90
20658;DHT22;10488;50.846;4.078;2023-03-23T10:02:15;13.90;99.90
20658;DHT22;10488;50.846;4.078;2023-03-23T10:04:48;14.00;99.90
20658;DHT22;10488;50.846;4.078;2023-03-23T10:07:20;14.00;99.90
20658;DHT22;10488;50.846;4.078;2023-03-23T10:09:52;13.90;99.90
20658;DHT22;10488;50.846;4.078;2023-03-23T10:19:51;14.60;99.90
20658;DHT22;10488;50.846;4.078;2023-03-23T10:22:26;14.50;99.90
20658;DHT22;10488;50.846;4.078;2023-03-23T10:27:41;14.80;99.90
20658;DHT22;10488;50.846;4.078;2023-03-23T10:34:01;14.90;99.90
20658;DHT22;10488;50.846;4.078;2023-03-23T10:38:50;14.80;99.90
20658;DHT22;10488;50.846;4.078;2023-03-23T10:41:19;15.00;99.90
20658;DHT22;10488;50.846;4.078;2023-03-23T10:43:47;15.20;99.90
20658;DHT22;10488;50.846;4.078;2023-03-23T10:49:00;15.60;99.90
20658;DHT22;10488;50.846;4.078;2023-03-23T10:51:34;15.20;99.90
20658;DHT22;10488;50.846;4.078;2023-03-23T10:54:03;15.00;99.90
20658;DHT22;10488;50.846;4.078;2023-03-23T10:59:12;15.50;99.90
20658;DHT22;10488;50.846;4.078;2023-03-23T11:01:38;15.50;99.90
20658;DHT22;10488;50.846;4.078;2023-03-23T11:04:13;15.70;99.90
20658;DHT22;10488;50.846;4.078;2023-03-23T11:06:48;16.20;99.90
20658;DHT22;10488;50.846;4.078;2023-03-23T11:09:20;16.10;99.90
20658;DHT22;10488;50.846;4.078;2023-03-23T11:11:54;16.40;99.90
20658;DHT22;10488;50.846;4.078;2023-03-23T11:14:35;15.90;99.90
20658;DHT22;10488;50.846;4.078;2023-03-23T11:17:18;15.80;99.90
20658;DHT22;10488;50.846;4.078;2023-03-23T11:19:45;15.80;99.90
20658;DHT22;10488;50.846;4.078;2023-03-23T11:22:26;15.60;99.90
20658;DHT22;10488;50.846;4.078;2023-03-23T11:24:54;15.50;99.90
20658;DHT22;10488;50.846;4.078;2023-03-23T11:27:21;15.40;99.90
20658;DHT22;10488;50.846;4.078;2023-03-23T11:29:58;15.60;99.90
20658;DHT22;10488;50.846;4.078;2023-03-23T11:32:29;15.60;99.90
20658;DHT22;10488;50.846;4.078;2023-03-23T11:35:02;15.60;99.90
20658;DHT22;10488;50.846;4.078;2023-03-23T11:37:39;16.00;99.90
20658;DHT22;10488;50.846;4.078;2023-03-23T11:42:47;16.20;99.90
20658;DHT22;10488;50.846;4.078;2023-03-23T11:45:35;16.20;99.90
20658;DHT22;10488;50.846;4.078;2023-03-23T11:48:27;16.20;99.90
20658;DHT22;10488;50.846;4.078;2023-03-23T11:56:25;16.50;99.90
20658;DHT22;10488;50.846;4.078;2023-03-23T11:58:53;16.10;99.90
20658;DHT22;10488;50.846;4.078;2023-03-23T12:01:22;16.10;99.90
20658;DHT22;10488;50.846;4.078;2023-03-23T12:04:32;16.30;99.90
20658;DHT22;10488;50.846;4.078;2023-03-23T12:07:02;16.40;99.90
20658;DHT22;10488;50.846;4.078;2023-03-23T12:23:42;16.50;99.90
20658;DHT22;10488;50.846;4.078;2023-03-23T12:26:32;16.30;99.90
20658;DHT22;10488;50.846;4.078;2023-03-23T12:29:23;16.40;99.90
20658;DHT22;10488;50.846;4.078;2023-03-23T12:34:41;16.70;99.90
20658;DHT22;10488;50.846;4.078;2023-03-23T12:40:07;16.50;99.90
20658;DHT22;10488;50.846;4.078;2023-03-23T12:43:14;16.80;99.90
20658;DHT22;10488;50.846;4.078;2023-03-23T12:48:12;17.00;99.90
20658;DHT22;10488;50.846;4.078;2023-03-23T12:50:43;17.30;99.90
20658;DHT22;10488;50.846;4.078;2023-03-23T12:53:15;17.30;99.90
20658;DHT22;10488;50.846;4.078;2023-03-23T12:58:41;17.60;99.90
20658;DHT22;10488;50.846;4.078;2023-03-23T13:01:24;17.40;99.90
20658;DHT22;10488;50.846;4.078;2023-03-23T13:04:11;17.30;99.90
20658;DHT22;10488;50.846;4.078;2023-03-23T13:06:43;17.00;99.90
20658;DHT22;10488;50.846;4.078;2023-03-23T13:11:52;17.10;99.90
20658;DHT22;10488;50.846;4.078;2023-03-23T13:14:24;17.10;99.90
20658;DHT22;10488;50.846;4.078;2023-03-23T13:22:50;16.90;99.90
20658;DHT22;10488;50.846;4.078;2023-03-23T13:28:22;16.90;99.90
20658;DHT22;10488;50.846;4.078;2023-03-23T13:30:56;17.10;99.90
20658;DHT22;10488;50.846;4.078;2023-03-23T13:33:23;17.20;99.90
20658;DHT22;10488;50.846;4.078;2023-03-23T13:35:49;17.10;99.90
20658;DHT22;10488;50.846;4.078;2023-03-23T13:38:27;16.90;99.90
20658;DHT22;10488;50.846;4.078;2023-03-23T13:40:54;16.80;99.90
20658;DHT22;10488;50.846;4.078;2023-03-23T13:43:32;17.00;99.90
20658;DHT22;10488;50.846;4.078;2023-03-23T13:49:31;16.90;99.90
20658;DHT22;10488;50.846;4.078;2023-03-23T13:52:01;16.80;99.90
20658;DHT22;10488;50.846;4.078;2023-03-23T13:54:40;16.80;99.90
20658;DHT22;10488;50.846;4.078;2023-03-23T13:57:48;16.90;99.90
20658;DHT22;10488;50.846;4.078;2023-03-23T14:06:01;16.50;99.90
20658;DHT22;10488;50.846;4.078;2023-03-23T14:11:23;16.80;99.90
20658;DHT22;10488;50.846;4.078;2023-03-23T14:14:14;17.00;99.90
20658;DHT22;10488;50.846;4.078;2023-03-23T14:16:44;16.90;99.90
20658;DHT22;10488;50.846;4.078;2023-03-23T14:21:54;16.80;99.90
20658;DHT22;10488;50.846;4.078;2023-03-23T14:24:28;16.60;99.90
20658;DHT22;10488;50.846;4.078;2023-03-23T14:27:13;16.40;99.90
20658;DHT22;10488;50.846;4.078;2023-03-23T14:29:40;16.40;99.90
20658;DHT22;10488;50.846;4.078;2023-03-23T14:32:09;16.30;99.90
20658;DHT22;10488;50.846;4.078;2023-03-23T14:34:37;16.00;99.90
20658;DHT22;10488;50.846;4.078;2023-03-23T14:37:03;15.90;99.90
20658;DHT22;10488;50.846;4.078;2023-03-23T14:39:31;15.80;99.90
20658;DHT22;10488;50.846;4.078;2023-03-23T14:42:05;15.80;99.90
20658;DHT22;10488;50.846;4.078;2023-03-23T14:44:37;16.10;99.90
20658;DHT22;10488;50.846;4.078;2023-03-23T14:47:06;16.20;99.90
20658;DHT22;10488;50.846;4.078;2023-03-23T14:49:38;16.00;99.90
20658;DHT22;10488;50.846;4.078;2023-03-23T14:52:15;16.20;99.90
20658;DHT22;10488;50.846;4.078;2023-03-23T14:54:43;16.20;99.90
20658;DHT22;10488;50.846;4.078;2023-03-23T14:57:14;16.30;99.90
20658;DHT22;10488;50.846;4.078;2023-03-23T14:59:43;16.30;99.90
20658;DHT22;10488;50.846;4.078;2023-03-23T15:02:32;16.40;99.90
20658;DHT22;10488;50.846;4.078;2023-03-23T15:05:15;16.20;99.90
20658;DHT22;10488;50.846;4.078;2023-03-23T15:07:43;16.10;99.90
20658;DHT22;10488;50.846;4.078;2023-03-23T15:10:15;16.10;99.90
20658;DHT22;10488;50.846;4.078;2023-03-23T15:12:44;16.20;99.90
20658;DHT22;10488;50.846;4.078;2023-03-23T15:15:24;16.60;99.90
20658;DHT22;10488;50.846;4.078;2023-03-23T15:17:50;16.80;99.90
20658;DHT22;10488;50.846;4.078;2023-03-23T15:22:48;16.80;99.90
20658;DHT22;10488;50.846;4.078;2023-03-23T15:27:55;16.60;99.90
20658;DHT22;10488;50.846;4.078;2023-03-23T15:33:04;16.40;99.90
20658;DHT22;10488;50.846;4.078;2023-03-23T15:35:37;16.20;99.90
20658;DHT22;10488;50.846;4.078;2023-03-23T15:38:15;16.00;99.90
20658;DHT22;10488;50.846;4.078;2023-03-23T15:40:43;15.80;99.90
20658;DHT22;10488;50.846;4.078;2023-03-23T15:48:51;15.60;99.90
20658;DHT22;10488;50.846;4.078;2023-03-23T15:51:21;15.60;99.90
20658;DHT22;10488;50.846;4.078;2023-03-23T15:53:48;15.80;99.90
20658;DHT22;10488;50.846;4.078;2023-03-23T15:56:15;15.90;99.90
20658;DHT22;10488;50.846;4.078;2023-03-23T15:58:41;16.10;99.90
20658;DHT22;10488;50.846;4.078;2023-03-23T16:01:15;16.20;99.90
20658;DHT22;10488;50.846;4.078;2023-03-23T16:03:50;16.20;99.90
20658;DHT22;10488;50.846;4.078;2023-03-23T16:06:18;15.90;99.90
20658;DHT22;10488;50.846;4.078;2023-03-23T16:08:44;15.80;99.90
20658;DHT22;10488;50.846;4.078;2023-03-23T16:11:15;15.80;99.90
20658;DHT22;10488;50.846;4.078;2023-03-23T16:13:41;15.70;99.90
20658;DHT22;10488;50.846;4.078;2023-03-23T16:16:18;15.60;99.90
20658;DHT22;10488;50.846;4.078;2023-03-23T16:18:45;15.60;99.90
20658;DHT22;10488;50.846;4.078;2023-03-23T16:21:11;15.60;99.90
20658;DHT22;10488;50.846;4.078;2023-03-23T16:23:36;15.70;99.90
20658;DHT22;10488;50.846;4.078;2023-03-23T16:26:03;15.60;99.90
20658;DHT22;10488;50.846;4.078;2023-03-23T16:28:29;15.60;99.90
20658;DHT22;10488;50.846;4.078;2023-03-23T16:30:54;15.60;99.90
20658;DHT22;10488;50.846;4.078;2023-03-23T16:33:20;15.60;99.90
20658;DHT22;10488;50.846;4.078;2023-03-23T16:35:46;15.60;99.90
20658;DHT22;10488;50.846;4.078;2023-03-23T16:38:13;15.60;99.90
20658;DHT22;10488;50.846;4.078;2023-03-23T16:40:44;15.50;99.90
20658;DHT22;10488;50.846;4.078;2023-03-23T16:43:10;15.50;99.90
20658;DHT22;10488;50.846;4.078;2023-03-23T16:45:38;15.40;99.90
20658;DHT22;10488;50.846;4.078;2023-03-23T16:48:05;15.50;99.90
20658;DHT22;10488;50.846;4.078;2023-03-23T16:50:31;15.50;99.90
20658;DHT22;10488;50.846;4.078;2023-03-23T16:52:57;15.40;99.90
20658;DHT22;10488;50.846;4.078;2023-03-23T16:55:23;15.30;99.90
20658;DHT22;10488;50.846;4.078;2023-03-23T16:57:50;15.20;99.90
20658;DHT22;10488;50.846;4.078;2023-03-23T17:00:17;15.30;99.90
20658;DHT22;10488;50.846;4.078;2023-03-23T17:02:48;15.30;99.90
20658;DHT22;10488;50.846;4.078;2023-03-23T17:05:19;15.30;99.90
20658;DHT22;10488;50.846;4.078;2023-03-23T17:07:45;15.40;99.90
20658;DHT22;10488;50.846;4.078;2023-03-23T17:10:12;15.40;99.90
20658;DHT22;10488;50.846;4.078;2023-03-23T17:12:39;15.30;99.90
20658;DHT22;10488;50.846;4.078;2023-03-23T17:15:06;15.20;99.90
20658;DHT22;10488;50.846;4.078;2023-03-23T17:17:32;15.10;99.90
20658;DHT22;10488;50.846;4.078;2023-03-23T17:19:58;15.20;99.90
20658;DHT22;10488;50.846;4.078;2023-03-23T17:22:24;15.10;99.90
20658;DHT22;10488;50.846;4.078;2023-03-23T17:24:51;15.00;99.90
20658;DHT22;10488;50.846;4.078;2023-03-23T17:27:18;15.00;99.90
20658;DHT22;10488;50.846;4.078;2023-03-23T17:29:44;15.10;99.90
20658;DHT22;10488;50.846;4.078;2023-03-23T17:32:11;15.00;99.90
20658;DHT22;10488;50.846;4.078;2023-03-23T17:34:37;15.00;99.90
20658;DHT22;10488;50.846;4.078;2023-03-23T17:37:03;15.00;99.90
20658;DHT22;10488;50.846;4.078;2023-03-23T17:39:30;15.00;99.90
20658;DHT22;10488;50.846;4.078;2023-03-23T17:41:57;15.10;99.90
20658;DHT22;10488;50.846;4.078;2023-03-23T17:44:23;15.00;99.90
20658;DHT22;10488;50.846;4.078;2023-03-23T17:46:48;14.90;99.90
20658;DHT22;10488;50.846;4.078;2023-03-23T17:49:14;14.90;99.90
20658;DHT22;10488;50.846;4.078;2023-03-23T17:51:40;14.90;99.90